createdAt,value
2023-04-03T00:02:07.392Z,1.95
2023-04-03T00:06:11.431Z,2.13
2023-04-03T00:10:13.375Z,2.38
2023-04-03T00:14:15.350Z,1.98
2023-04-03T00:18:16.993Z,1.88
2023-04-03T00:22:18.656Z,1.95
2023-04-03T00:26:21.607Z,1.73
2023-04-03T00:30:23.766Z,1.88
2023-04-03T00:34:25.508Z,1.95
2023-04-03T00:38:27.299Z,1.88
2023-04-03T00:42:29.032Z,2.10
2023-04-03T00:46:30.843Z,2.13
2023-04-03T00:50:35.767Z,2.10
2023-04-03T00:54:38.266Z,2.28
2023-04-03T00:58:51.968Z,2.50
2023-04-03T01:02:54.077Z,2.28
2023-04-03T01:06:58.502Z,2.72
2023-04-03T01:11:00.405Z,2.65
2023-04-03T01:15:11.042Z,2.42
2023-04-03T01:19:17.494Z,2.60
2023-04-03T01:23:36.865Z,2.10
2023-04-03T01:27:38.458Z,2.63
2023-04-03T01:31:54.220Z,2.55
2023-04-03T01:35:56.226Z,2.38
2023-04-03T01:39:57.897Z,2.00
2023-04-03T01:43:59.514Z,2.60
2023-04-03T01:48:01.333Z,2.53
2023-04-03T01:52:03.066Z,2.20
2023-04-03T01:56:05.206Z,2.72
2023-04-03T02:00:08.625Z,2.40
2023-04-03T02:04:10.709Z,2.63
2023-04-03T02:08:12.559Z,2.33
2023-04-03T02:12:14.228Z,2.22
2023-04-03T02:16:15.904Z,2.33
2023-04-03T02:20:17.932Z,2.50
2023-04-03T02:24:19.683Z,2.63
2023-04-03T02:28:21.440Z,2.33
2023-04-03T02:32:23.116Z,2.50
2023-04-03T02:36:24.864Z,2.53
2023-04-03T02:40:26.753Z,2.80
2023-04-03T02:44:28.453Z,2.53
2023-04-03T02:48:30.595Z,2.40
2023-04-03T02:52:32.762Z,2.63
2023-04-03T02:56:34.942Z,2.40
2023-04-03T03:00:36.843Z,2.60
2023-04-03T03:04:38.666Z,2.33
2023-04-03T03:08:40.880Z,2.20
2023-04-03T03:12:42.860Z,2.75
2023-04-03T03:16:44.547Z,2.38
2023-04-03T03:20:46.511Z,2.33
2023-04-03T03:24:48.137Z,2.70
2023-04-03T03:28:49.766Z,2.97
2023-04-03T03:32:51.412Z,2.80
2023-04-03T03:36:53.036Z,2.90
2023-04-03T03:40:54.700Z,2.92
2023-04-03T03:44:56.279Z,3.40
2023-04-03T03:48:58.049Z,3.45
2023-04-03T03:52:59.639Z,4.32
2023-04-03T03:57:01.282Z,3.70
2023-04-03T04:01:07.119Z,3.33
2023-04-03T04:05:09.222Z,3.25
2023-04-03T04:09:10.898Z,3.38
2023-04-03T04:13:12.516Z,4.97
2023-04-03T04:17:14.912Z,3.30
2023-04-03T04:21:16.513Z,3.80
2023-04-03T04:25:18.118Z,3.50
2023-04-03T04:29:19.741Z,4.50
2023-04-03T04:33:21.650Z,3.88
2023-04-03T04:37:23.280Z,3.55
2023-04-03T04:41:24.950Z,4.07
2023-04-03T04:45:26.587Z,3.72
2023-04-03T04:49:28.200Z,3.20
2023-04-03T04:53:29.958Z,3.08
2023-04-03T04:57:31.781Z,3.83
2023-04-03T05:01:33.517Z,3.42
2023-04-03T05:05:36.575Z,3.50
2023-04-03T05:13:40.277Z,3.95
2023-04-03T05:17:42.210Z,4.63
2023-04-03T05:21:43.844Z,4.72
2023-04-03T05:25:47.762Z,4.90
2023-04-03T05:29:49.343Z,5.90
2023-04-03T05:33:51.267Z,4.03
2023-04-03T05:37:52.946Z,5.03
2023-04-03T05:41:54.675Z,4.35
2023-04-03T05:45:56.366Z,6.55
2023-04-03T05:49:58.156Z,7.05
2023-04-03T05:54:13.268Z,5.60
2023-04-03T05:58:15.042Z,4.85
2023-04-03T06:02:20.096Z,3.88
2023-04-03T06:06:23.082Z,4.60
2023-04-03T06:10:26.896Z,3.75
2023-04-03T06:14:28.820Z,4.10
2023-04-03T06:18:30.958Z,4.10
2023-04-03T06:22:32.691Z,3.38
2023-04-03T06:26:34.996Z,3.15
2023-04-03T06:30:37.648Z,4.30
2023-04-03T06:34:39.597Z,3.38
2023-04-03T06:38:41.352Z,2.95
2023-04-03T06:42:42.998Z,3.03
2023-04-03T06:46:47.444Z,2.90
2023-04-03T06:50:49.467Z,3.38
2023-04-03T06:54:52.711Z,2.97
2023-04-03T06:58:55.713Z,3.22
2023-04-03T07:02:58.540Z,3.67
2023-04-03T07:07:00.505Z,3.08
2023-04-03T07:11:02.296Z,2.50
2023-04-03T07:15:05.770Z,2.55
2023-04-03T07:19:10.069Z,2.80
2023-04-03T07:23:11.861Z,2.50
2023-04-03T07:27:13.686Z,2.90
2023-04-03T07:31:17.788Z,2.20
2023-04-03T07:35:19.924Z,1.90
2023-04-03T07:39:21.622Z,1.85
2023-04-03T07:43:25.606Z,2.67
2023-04-03T07:47:27.276Z,3.00
2023-04-03T07:51:30.569Z,2.80
2023-04-03T07:55:34.468Z,2.63
2023-04-03T07:59:36.738Z,2.40
2023-04-03T08:03:39.743Z,2.30
2023-04-03T08:07:41.505Z,2.60
2023-04-03T08:11:43.579Z,2.08
2023-04-03T08:15:46.103Z,2.33
2023-04-03T08:19:47.798Z,2.33
2023-04-03T08:23:51.721Z,5.07
2023-04-03T08:27:57.245Z,2.15
2023-04-03T08:31:59.114Z,2.30
2023-04-03T08:36:00.824Z,2.42
2023-04-03T08:40:02.588Z,2.10
2023-04-03T08:44:25.985Z,2.08
2023-04-03T08:48:40.244Z,3.20
2023-04-03T08:52:57.066Z,2.58
2023-04-03T08:57:01.798Z,2.35
2023-04-03T09:01:06.679Z,2.20
2023-04-03T09:05:33.296Z,2.13
2023-04-03T09:09:42.566Z,2.88
2023-04-03T09:14:23.263Z,2.67
2023-04-03T09:18:31.450Z,2.00
2023-04-03T09:22:45.637Z,2.17
2023-04-03T09:27:03.212Z,2.50
2023-04-03T09:31:19.246Z,2.70
2023-04-03T09:35:36.372Z,2.47
2023-04-03T09:39:55.054Z,2.10
2023-04-03T09:43:56.767Z,1.80
2023-04-03T09:48:16.682Z,2.60
2023-04-03T09:52:26.001Z,2.17
2023-04-03T09:56:32.432Z,2.22
2023-04-03T10:00:41.369Z,3.05
2023-04-03T10:04:43.578Z,2.42
2023-04-03T10:09:05.394Z,2.50
2023-04-03T10:13:25.563Z,2.50
2023-04-03T10:18:14.352Z,1.83
2023-04-03T10:23:01.314Z,2.63
2023-04-03T10:27:16.703Z,2.10
2023-04-03T10:31:27.894Z,3.03
2023-04-03T10:36:02.478Z,3.17
2023-04-03T10:40:32.072Z,3.40
2023-04-03T10:44:55.190Z,2.88
2023-04-03T10:49:28.225Z,2.30
2023-04-03T10:53:45.597Z,2.15
2023-04-03T10:57:48.523Z,2.35
2023-04-03T11:01:58.160Z,3.03
2023-04-03T11:06:03.500Z,2.42
2023-04-03T11:10:15.850Z,3.75
2023-04-03T11:14:35.972Z,2.93
2023-04-03T11:18:45.972Z,3.00
2023-04-03T11:23:02.933Z,2.33
2023-04-03T11:27:08.839Z,2.45
2023-04-03T11:31:46.967Z,2.30
2023-04-03T11:35:52.988Z,1.80
2023-04-03T11:40:01.529Z,2.50
2023-04-03T11:44:07.305Z,3.17
2023-04-03T11:48:28.386Z,1.95
2023-04-03T11:52:44.718Z,2.42
2023-04-03T11:56:46.742Z,3.22
2023-04-03T12:00:51.909Z,1.70
2023-04-03T12:05:27.157Z,2.88
2023-04-03T12:09:57.215Z,1.90
2023-04-03T12:13:58.820Z,2.97
2023-04-03T12:18:20.645Z,2.75
2023-04-03T12:22:26.207Z,2.47
2023-04-03T12:26:42.115Z,1.83
2023-04-03T12:30:50.107Z,2.15
2023-04-03T12:35:01.478Z,2.70
2023-04-03T12:39:46.945Z,1.63
2023-04-03T12:44:14.539Z,2.05
2023-04-03T12:48:19.888Z,1.85
2023-04-03T12:52:42.369Z,1.40
2023-04-03T12:56:45.180Z,4.10
2023-04-03T13:00:47.141Z,1.80
2023-04-03T13:04:51.195Z,2.03
2023-04-03T13:08:54.451Z,1.70
2023-04-03T13:13:09.982Z,2.08
2023-04-03T13:17:17.257Z,1.70
2023-04-03T13:21:24.224Z,1.70
2023-04-03T13:25:29.318Z,1.95
2023-04-03T13:29:34.806Z,2.03
2023-04-03T13:33:40.610Z,1.55
2023-04-03T13:37:56.550Z,2.33
2023-04-03T13:42:15.077Z,1.30
2023-04-03T13:46:16.855Z,2.20
2023-04-03T13:50:23.704Z,2.10
2023-04-03T13:54:35.311Z,2.80
2023-04-03T13:58:38.612Z,1.77
2023-04-03T14:02:40.537Z,2.10
2023-04-03T14:06:42.222Z,1.83
2023-04-03T14:10:44.316Z,1.75
2023-04-03T14:14:47.209Z,1.73
2023-04-03T14:18:50.723Z,1.75
2023-04-03T14:22:53.335Z,2.17
2023-04-03T14:26:55.818Z,2.00
2023-04-03T14:30:57.589Z,1.60
2023-04-03T14:34:59.917Z,2.22
2023-04-03T14:39:03.041Z,1.77
2023-04-03T14:47:29.981Z,2.30
2023-04-03T14:51:33.192Z,1.77
2023-04-03T14:55:36.092Z,1.80
2023-04-03T14:59:37.793Z,1.70
2023-04-03T15:03:39.746Z,1.98
2023-04-03T15:07:50.034Z,1.88
2023-04-03T15:11:53.628Z,2.30
2023-04-03T15:15:55.602Z,1.80
2023-04-03T15:19:57.397Z,1.70
2023-04-03T15:24:00.945Z,2.03
2023-04-03T15:28:04.076Z,2.08
2023-04-03T15:32:06.558Z,1.80
2023-04-03T15:36:22.595Z,1.73
2023-04-03T15:40:30.404Z,1.80
2023-04-03T15:44:32.520Z,1.38
2023-04-03T15:48:34.332Z,2.25
2023-04-03T15:52:36.889Z,2.00
2023-04-03T15:56:38.635Z,1.58
2023-04-03T16:00:41.027Z,2.10
2023-04-03T16:04:42.912Z,1.85
2023-04-03T16:08:44.865Z,1.90
2023-04-03T16:12:46.742Z,1.85
2023-04-03T16:16:48.570Z,1.85
2023-04-03T16:20:50.597Z,1.70
2023-04-03T16:24:52.328Z,1.67
2023-04-03T16:28:55.623Z,1.95
2023-04-03T16:32:58.351Z,2.10
2023-04-03T16:37:00.558Z,1.90
2023-04-03T16:41:05.429Z,2.13
2023-04-03T16:45:08.484Z,2.30
2023-04-03T16:49:10.524Z,3.03
2023-04-03T16:53:12.222Z,1.88
2023-04-03T16:57:14.157Z,2.70
2023-04-03T17:01:18.763Z,2.42
2023-04-03T17:05:20.454Z,2.42
2023-04-03T17:09:23.552Z,2.10
2023-04-03T17:17:34.147Z,2.55
2023-04-03T17:21:36.551Z,1.83
2023-04-03T17:25:38.324Z,3.10
2023-04-03T17:29:40.118Z,5.43
2023-04-03T17:33:41.883Z,2.28
2023-04-03T17:37:43.602Z,2.72
2023-04-03T17:41:49.503Z,2.80
2023-04-03T17:45:51.475Z,2.45
2023-04-03T17:49:53.189Z,5.18
2023-04-03T17:53:55.288Z,4.85
2023-04-03T17:58:00.021Z,6.68
2023-04-03T18:02:02.053Z,6.70
2023-04-03T18:06:05.878Z,4.75
2023-04-03T18:10:09.087Z,3.85
2023-04-03T18:18:12.736Z,4.65
2023-04-03T18:22:17.079Z,4.05
2023-04-03T18:26:20.800Z,3.47
2023-04-03T18:30:23.290Z,2.60
2023-04-03T18:34:24.995Z,4.10
2023-04-03T18:38:26.777Z,3.42
2023-04-03T18:42:28.554Z,4.13
2023-04-03T18:46:32.745Z,3.30
2023-04-03T18:50:34.864Z,3.83
2023-04-03T18:54:37.353Z,3.17
2023-04-03T18:58:39.030Z,2.70
2023-04-03T19:02:41.001Z,1.80
2023-04-03T19:06:43.010Z,2.30
2023-04-03T19:10:44.797Z,2.35
2023-04-03T19:14:46.566Z,1.80
2023-04-03T19:18:48.438Z,2.42
2023-04-03T19:22:50.179Z,4.05
2023-04-03T19:26:51.901Z,2.35
2023-04-03T19:30:53.861Z,2.30
2023-04-03T19:34:57.976Z,2.63
2023-04-03T19:38:59.824Z,2.75
2023-04-03T19:43:01.549Z,2.75
2023-04-03T19:47:04.156Z,2.25
2023-04-03T19:51:07.991Z,2.75
2023-04-03T19:55:10.550Z,3.03
2023-04-03T19:59:12.728Z,2.70
2023-04-03T20:03:14.693Z,2.63
2023-04-03T20:07:16.727Z,6.78
2023-04-03T20:11:18.601Z,7.50
2023-04-03T20:15:21.272Z,5.15
2023-04-03T20:19:26.906Z,2.88
2023-04-03T20:23:30.301Z,5.25
2023-04-03T20:27:32.472Z,6.53
2023-04-03T20:31:34.423Z,3.88
2023-04-03T20:35:36.148Z,3.67
2023-04-03T20:39:37.915Z,4.80
2023-04-03T20:43:40.174Z,2.92
2023-04-03T20:47:42.161Z,1.95
2023-04-03T20:51:44.020Z,2.35
2023-04-03T20:55:56.685Z,2.38
2023-04-03T20:59:58.565Z,2.15
2023-04-03T21:04:07.151Z,2.53
2023-04-03T21:08:46.780Z,2.42
2023-04-03T21:13:26.241Z,2.17
2023-04-03T21:17:28.041Z,2.45
2023-04-03T21:21:33.221Z,2.40
2023-04-03T21:25:34.994Z,1.92
2023-04-03T21:29:36.652Z,1.92
2023-04-03T21:33:38.685Z,2.58
2023-04-03T21:37:40.528Z,2.00
2023-04-03T21:41:42.294Z,2.15
2023-04-03T21:45:44.388Z,2.72
2023-04-03T21:49:47.518Z,2.85
2023-04-03T21:53:56.288Z,3.00
2023-04-03T21:57:58.255Z,3.17
2023-04-03T22:02:01.961Z,2.60
2023-04-03T22:06:04.204Z,2.95
2023-04-03T22:10:07.306Z,2.55
2023-04-03T22:18:11.295Z,3.25
2023-04-03T22:22:13.156Z,2.77
2023-04-03T22:26:14.991Z,2.63
2023-04-03T22:30:16.684Z,2.80
2023-04-03T22:34:19.790Z,2.25
2023-04-03T22:38:22.413Z,3.72
2023-04-03T22:42:24.143Z,2.38
2023-04-03T22:46:26.041Z,2.95
2023-04-03T22:50:28.184Z,2.95
2023-04-03T22:54:29.911Z,2.75
2023-04-03T22:58:31.721Z,2.50
2023-04-03T23:02:33.565Z,3.05
2023-04-03T23:06:35.836Z,3.15
2023-04-03T23:10:37.621Z,2.22
2023-04-03T23:14:39.504Z,2.47
2023-04-03T23:18:43.523Z,2.42
2023-04-03T23:22:45.571Z,2.80
2023-04-03T23:26:47.281Z,2.15
2023-04-03T23:30:50.976Z,2.22
2023-04-03T23:34:52.877Z,2.00
2023-04-03T23:38:57.643Z,2.60
2023-04-03T23:42:59.422Z,2.80
2023-04-03T23:47:01.252Z,2.15
2023-04-03T23:51:03.739Z,2.25
2023-04-03T23:55:06.156Z,2.05
2023-04-03T23:59:07.855Z,2.42
